createdAt,value
2022-10-10T00:00:59.975Z,64.56
2022-10-10T00:03:27.264Z,64.46
2022-10-10T00:05:54.339Z,64.19
2022-10-10T00:08:21.330Z,63.97
2022-10-10T00:10:48.466Z,64.17
2022-10-10T00:13:15.937Z,64.06
2022-10-10T00:15:46.798Z,63.81
2022-10-10T00:18:16.506Z,64.06
2022-10-10T00:20:43.408Z,64.25
2022-10-10T00:23:10.348Z,63.83
2022-10-10T00:25:38.068Z,63.84
2022-10-10T00:28:06.104Z,63.92
2022-10-10T00:30:33.196Z,63.63
2022-10-10T00:33:01.059Z,63.74
2022-10-10T00:35:28.527Z,63.56
2022-10-10T00:37:55.556Z,63.50
2022-10-10T00:40:23.007Z,63.30
2022-10-10T00:42:50.310Z,63.41
2022-10-10T00:45:26.408Z,63.25
2022-10-10T00:48:00.048Z,62.98
2022-10-10T00:50:28.717Z,63.21
2022-10-10T00:52:56.506Z,63.47
2022-10-10T00:55:23.965Z,63.25
2022-10-10T00:57:51.616Z,63.16
2022-10-10T01:00:19.088Z,63.27
2022-10-10T01:02:46.107Z,62.89
2022-10-10T01:05:13.116Z,63.21
2022-10-10T01:07:40.747Z,63.08
2022-10-10T01:10:16.834Z,63.11
2022-10-10T01:12:50.153Z,62.69
2022-10-10T01:15:35.216Z,62.87
2022-10-10T01:18:10.857Z,62.82
2022-10-10T01:20:56.056Z,62.77
2022-10-10T01:23:50.777Z,62.98
2022-10-10T01:26:34.996Z,62.96
2022-10-10T01:29:07.897Z,63.02
2022-10-10T01:31:39.937Z,63.11
2022-10-10T01:34:18.976Z,62.76
2022-10-10T01:36:57.121Z,63.00
2022-10-10T01:39:41.577Z,63.03
2022-10-10T01:42:19.418Z,63.22
2022-10-10T01:44:47.558Z,63.24
2022-10-10T01:47:14.976Z,63.50
2022-10-10T01:49:45.038Z,63.59
2022-10-10T01:52:14.940Z,63.19
2022-10-10T01:55:12.616Z,63.94
2022-10-10T01:58:14.356Z,64.65
2022-10-10T02:00:59.285Z,64.58
2022-10-10T02:03:32.120Z,64.83
2022-10-10T02:06:18.838Z,64.94
2022-10-10T02:08:59.258Z,65.16
2022-10-10T02:11:29.232Z,64.95
2022-10-10T02:14:21.879Z,64.50
2022-10-10T02:16:52.216Z,65.22
2022-10-10T02:19:21.977Z,64.78
2022-10-10T02:21:52.116Z,65.00
2022-10-10T02:24:22.140Z,64.86
2022-10-10T02:26:56.298Z,64.96
2022-10-10T02:29:29.196Z,64.84
2022-10-10T02:32:21.197Z,64.82
2022-10-10T02:34:55.757Z,64.77
2022-10-10T02:37:24.658Z,64.54
2022-10-10T02:39:57.897Z,64.48
2022-10-10T02:42:26.817Z,64.54
2022-10-10T02:44:55.097Z,64.08
2022-10-10T02:47:21.976Z,64.05
2022-10-10T02:49:49.240Z,64.04
2022-10-10T02:52:17.338Z,64.08
2022-10-10T02:54:44.458Z,64.16
2022-10-10T02:57:11.597Z,63.70
2022-10-10T02:59:38.578Z,64.05
2022-10-10T03:02:06.617Z,63.70
2022-10-10T03:04:35.056Z,63.83
2022-10-10T03:07:03.356Z,63.80
2022-10-10T03:09:30.257Z,64.13
2022-10-10T03:11:57.437Z,64.09
2022-10-10T03:14:24.475Z,64.05
2022-10-10T03:16:51.556Z,63.85
2022-10-10T03:19:18.556Z,63.90
2022-10-10T03:21:45.704Z,64.30
2022-10-10T03:24:12.677Z,64.53
2022-10-10T03:26:39.736Z,64.52
2022-10-10T03:29:06.818Z,64.76
2022-10-10T03:31:33.836Z,64.83
2022-10-10T03:34:00.977Z,64.65
2022-10-10T03:36:28.641Z,65.25
2022-10-10T03:38:55.638Z,65.28
2022-10-10T03:41:22.758Z,65.17
2022-10-10T03:43:49.737Z,65.14
2022-10-10T03:46:16.805Z,65.40
2022-10-10T03:48:44.122Z,65.33
2022-10-10T03:51:11.477Z,65.04
2022-10-10T03:53:38.677Z,64.94
2022-10-10T03:56:06.156Z,64.80
2022-10-10T03:58:33.238Z,64.88
2022-10-10T04:01:02.473Z,65.41
2022-10-10T04:03:30.324Z,65.56
2022-10-10T04:05:57.397Z,64.86
2022-10-10T04:08:24.996Z,65.64
2022-10-10T04:10:53.615Z,65.50
2022-10-10T04:13:21.943Z,66.30
2022-10-10T04:15:52.956Z,65.87
2022-10-10T04:18:20.676Z,65.76
2022-10-10T04:20:47.856Z,65.57
2022-10-10T04:23:15.111Z,65.37
2022-10-10T04:25:43.287Z,65.05
2022-10-10T04:28:15.057Z,65.36
2022-10-10T04:30:42.426Z,65.38
2022-10-10T04:33:09.831Z,65.37
2022-10-10T04:35:37.504Z,65.79
2022-10-10T04:38:05.381Z,66.08
2022-10-10T04:40:33.087Z,66.15
2022-10-10T04:43:00.621Z,65.80
2022-10-10T04:45:28.017Z,65.40
2022-10-10T04:47:55.864Z,65.67
2022-10-10T04:50:24.117Z,65.01
2022-10-10T04:52:51.483Z,65.08
2022-10-10T04:55:19.024Z,64.96
2022-10-10T04:57:46.457Z,65.24
2022-10-10T05:00:13.929Z,65.86
2022-10-10T05:02:41.138Z,66.33
2022-10-10T05:05:08.859Z,65.89
2022-10-10T05:07:36.056Z,65.97
2022-10-10T05:10:03.381Z,65.90
2022-10-10T05:12:30.623Z,66.08
2022-10-10T05:14:57.819Z,66.25
2022-10-10T05:17:25.217Z,66.17
2022-10-10T05:19:52.667Z,65.82
2022-10-10T05:22:19.898Z,65.88
2022-10-10T05:24:47.158Z,66.12
2022-10-10T05:27:14.456Z,66.09
2022-10-10T05:29:41.701Z,65.89
2022-10-10T05:32:10.480Z,66.13
2022-10-10T05:34:38.944Z,65.78
2022-10-10T05:37:06.179Z,66.13
2022-10-10T05:39:33.587Z,66.03
2022-10-10T05:42:00.738Z,66.22
2022-10-10T05:44:28.104Z,66.42
2022-10-10T05:46:55.196Z,65.88
2022-10-10T05:49:22.500Z,66.37
2022-10-10T05:51:49.700Z,66.15
2022-10-10T05:54:17.022Z,66.04
2022-10-10T05:56:44.561Z,66.43
2022-10-10T05:59:11.782Z,66.22
2022-10-10T06:01:38.981Z,65.62
2022-10-10T06:04:06.356Z,65.21
2022-10-10T06:06:33.703Z,65.25
2022-10-10T06:09:00.943Z,65.47
2022-10-10T06:11:28.184Z,65.21
2022-10-10T06:13:55.784Z,65.60
2022-10-10T06:16:24.380Z,65.36
2022-10-10T06:18:52.820Z,64.98
2022-10-10T06:21:20.383Z,64.91
2022-10-10T06:23:47.621Z,65.32
2022-10-10T06:26:15.827Z,65.06
2022-10-10T06:28:43.002Z,65.13
2022-10-10T06:31:12.818Z,65.44
2022-10-10T06:33:42.584Z,65.12
2022-10-10T06:36:10.789Z,65.67
2022-10-10T06:38:38.861Z,65.24
2022-10-10T06:41:07.058Z,65.32
2022-10-10T06:43:34.339Z,65.46
2022-10-10T06:46:02.420Z,65.38
2022-10-10T06:48:35.185Z,65.62
2022-10-10T06:51:08.620Z,65.21
2022-10-10T06:53:36.383Z,65.43
2022-10-10T06:56:04.260Z,66.10
2022-10-10T06:58:32.501Z,66.17
2022-10-10T07:01:01.177Z,65.16
2022-10-10T07:03:30.232Z,65.16
2022-10-10T07:06:00.937Z,64.82
2022-10-10T07:08:29.542Z,64.49
2022-10-10T07:10:57.542Z,64.69
2022-10-10T07:13:24.818Z,64.35
2022-10-10T07:15:52.218Z,64.57
2022-10-10T07:18:20.061Z,64.30
2022-10-10T07:20:47.743Z,64.49
2022-10-10T07:23:15.347Z,64.83
2022-10-10T07:25:43.499Z,64.26
2022-10-10T07:28:11.205Z,64.06
2022-10-10T07:30:45.937Z,63.83
2022-10-10T07:33:14.344Z,63.25
2022-10-10T07:35:42.224Z,62.81
2022-10-10T07:38:11.785Z,62.55
2022-10-10T07:40:41.909Z,62.14
2022-10-10T07:43:09.313Z,61.86
2022-10-10T07:45:37.464Z,62.04
2022-10-10T07:48:04.822Z,61.56
2022-10-10T07:50:31.980Z,61.29
2022-10-10T07:52:59.419Z,61.07
2022-10-10T07:55:26.901Z,61.26
2022-10-10T07:57:54.444Z,60.18
2022-10-10T08:00:22.100Z,60.76
2022-10-10T08:02:49.337Z,60.75
2022-10-10T08:05:16.582Z,61.25
2022-10-10T08:07:43.940Z,61.48
2022-10-10T08:10:11.104Z,61.17
2022-10-10T08:12:38.339Z,60.03
2022-10-10T08:15:07.050Z,59.52
2022-10-10T08:17:34.540Z,58.60
2022-10-10T08:20:01.904Z,57.79
2022-10-10T08:22:29.258Z,57.87
2022-10-10T08:24:56.461Z,58.17
2022-10-10T08:27:23.700Z,56.27
2022-10-10T08:29:51.043Z,55.83
2022-10-10T08:32:18.384Z,54.55
2022-10-10T08:34:45.779Z,54.71
2022-10-10T08:37:13.096Z,54.89
2022-10-10T08:39:40.360Z,55.38
2022-10-10T08:42:14.580Z,56.23
2022-10-10T08:44:56.260Z,56.33
2022-10-10T08:47:45.577Z,55.75
2022-10-10T08:50:24.390Z,54.87
2022-10-10T08:53:00.857Z,54.04
2022-10-10T08:55:34.057Z,53.34
2022-10-10T08:58:20.053Z,53.17
2022-10-10T09:00:50.857Z,51.41
2022-10-10T09:03:30.944Z,51.80
2022-10-10T09:06:13.142Z,51.29
2022-10-10T09:08:54.184Z,50.56
2022-10-10T09:11:56.822Z,49.99
2022-10-10T09:14:45.258Z,49.27
2022-10-10T09:17:31.310Z,48.77
2022-10-10T09:20:33.699Z,49.35
2022-10-10T09:23:17.023Z,49.02
2022-10-10T09:25:53.704Z,48.93
2022-10-10T09:28:39.284Z,48.27
2022-10-10T09:31:38.856Z,48.30
2022-10-10T09:34:15.701Z,48.74
2022-10-10T09:36:44.621Z,48.08
2022-10-10T09:39:47.028Z,48.79
2022-10-10T09:42:16.146Z,48.59
2022-10-10T09:44:44.185Z,46.75
2022-10-10T09:47:15.144Z,47.31
2022-10-10T09:49:44.176Z,47.73
2022-10-10T09:52:32.298Z,47.18
2022-10-10T09:55:07.581Z,47.57
2022-10-10T09:57:39.860Z,47.05
2022-10-10T10:00:19.264Z,47.00
2022-10-10T10:02:51.061Z,45.36
2022-10-10T10:05:26.460Z,45.86
2022-10-10T10:07:53.979Z,45.37
2022-10-10T10:10:24.707Z,45.16
2022-10-10T10:12:52.707Z,45.64
2022-10-10T10:15:30.096Z,44.96
2022-10-10T10:18:39.260Z,44.73
2022-10-10T10:21:12.627Z,44.75
2022-10-10T10:24:08.744Z,43.32
2022-10-10T10:26:41.940Z,44.22
2022-10-10T10:29:32.256Z,42.27
2022-10-10T10:32:32.898Z,41.62
2022-10-10T10:35:00.115Z,40.63
2022-10-10T10:38:04.139Z,39.47
2022-10-10T10:40:42.661Z,39.86
2022-10-10T10:43:35.255Z,39.44
2022-10-10T10:46:30.700Z,39.43
2022-10-10T10:49:05.457Z,38.69
2022-10-10T10:51:47.658Z,39.26
2022-10-10T10:54:40.352Z,38.22
2022-10-10T10:57:31.775Z,37.99
2022-10-10T11:00:41.296Z,37.16
2022-10-10T11:13:31.744Z,38.20
2022-10-10T11:16:46.966Z,37.84
2022-10-10T11:19:11.465Z,37.55
2022-10-10T11:21:46.779Z,37.78
2022-10-10T11:24:41.899Z,38.16
2022-10-10T11:27:20.539Z,36.67
2022-10-10T11:30:13.588Z,37.56
2022-10-10T11:32:54.303Z,35.94
2022-10-10T11:36:00.817Z,35.79
2022-10-10T11:38:47.502Z,34.71
2022-10-10T11:41:29.338Z,34.88
2022-10-10T11:44:29.577Z,35.37
2022-10-10T11:47:06.820Z,35.11
2022-10-10T11:49:52.261Z,33.80
2022-10-10T11:52:34.892Z,33.58
2022-10-10T11:55:20.429Z,33.80
2022-10-10T11:58:01.259Z,34.04
2022-10-10T12:00:29.426Z,33.66
2022-10-10T12:02:57.779Z,32.97
2022-10-10T12:05:28.737Z,32.88
2022-10-10T12:08:00.259Z,33.18
2022-10-10T12:10:35.551Z,33.06
2022-10-10T12:13:28.981Z,32.40
2022-10-10T12:15:59.137Z,32.15
2022-10-10T12:18:29.460Z,33.00
2022-10-10T12:21:06.620Z,32.54
2022-10-10T12:23:34.096Z,32.55
2022-10-10T12:26:01.784Z,32.34
2022-10-10T12:28:33.977Z,31.68
2022-10-10T12:31:07.261Z,32.32
2022-10-10T12:33:34.424Z,32.29
2022-10-10T12:36:19.981Z,31.48
2022-10-10T12:39:03.581Z,31.96
2022-10-10T12:41:47.284Z,32.49
2022-10-10T12:44:36.106Z,33.03
2022-10-10T12:47:15.385Z,32.74
2022-10-10T12:50:01.656Z,32.20
2022-10-10T12:52:38.376Z,32.14
2022-10-10T12:55:08.150Z,32.38
2022-10-10T12:57:43.177Z,32.18
2022-10-10T13:00:28.096Z,32.18
2022-10-10T13:03:01.856Z,31.87
2022-10-10T13:05:36.379Z,32.21
2022-10-10T13:08:07.462Z,33.30
2022-10-10T13:10:34.858Z,33.39
2022-10-10T13:13:28.339Z,34.16
2022-10-10T13:15:57.986Z,34.41
2022-10-10T13:18:36.338Z,34.70
2022-10-10T13:21:06.565Z,34.58
2022-10-10T13:23:36.697Z,33.53
2022-10-10T13:26:04.538Z,32.45
2022-10-10T13:28:31.909Z,31.32
2022-10-10T13:30:59.601Z,30.58
2022-10-10T13:33:33.743Z,30.26
2022-10-10T13:36:07.496Z,29.17
2022-10-10T13:38:36.146Z,28.72
2022-10-10T13:41:05.538Z,27.79
2022-10-10T13:43:33.819Z,26.60
2022-10-10T13:46:02.416Z,25.71
2022-10-10T13:48:32.386Z,26.56
2022-10-10T13:51:06.829Z,25.69
2022-10-10T13:53:52.503Z,25.27
2022-10-10T13:56:29.701Z,24.13
2022-10-10T13:59:04.988Z,23.63
2022-10-10T14:01:39.208Z,23.71
2022-10-10T14:04:23.022Z,23.01
2022-10-10T14:06:56.061Z,23.40
2022-10-10T14:09:26.098Z,23.24
2022-10-10T14:11:55.582Z,24.50
2022-10-10T14:14:48.138Z,26.40
2022-10-10T14:17:16.219Z,26.14
2022-10-10T14:19:45.700Z,27.01
2022-10-10T14:22:13.258Z,27.96
2022-10-10T14:24:40.817Z,29.06
2022-10-10T14:27:20.282Z,31.06
2022-10-10T14:29:48.216Z,31.93
2022-10-10T14:32:16.300Z,33.44
2022-10-10T14:34:44.018Z,33.95
2022-10-10T14:37:26.055Z,35.08
2022-10-10T14:39:54.310Z,35.12
2022-10-10T14:42:22.780Z,36.00
2022-10-10T14:44:50.105Z,36.80
2022-10-10T14:47:19.658Z,36.75
2022-10-10T14:49:47.425Z,37.21
2022-10-10T14:52:15.895Z,37.95
2022-10-10T14:54:43.261Z,39.22
2022-10-10T14:57:12.980Z,39.86
2022-10-10T14:59:47.865Z,39.29
2022-10-10T15:02:22.271Z,40.19
2022-10-10T15:04:50.034Z,40.20
2022-10-10T15:07:18.416Z,41.98
2022-10-10T15:10:17.559Z,42.04
2022-10-10T15:12:37.619Z,42.45
2022-10-10T15:15:06.056Z,42.31
2022-10-10T15:17:34.771Z,42.83
2022-10-10T15:20:04.063Z,43.59
2022-10-10T15:22:31.797Z,43.45
2022-10-10T15:24:59.181Z,44.25
2022-10-10T15:27:28.415Z,44.64
2022-10-10T15:29:55.902Z,45.43
2022-10-10T15:32:23.203Z,44.53
2022-10-10T15:34:51.422Z,44.78
2022-10-10T15:37:19.538Z,44.84
2022-10-10T15:39:46.696Z,46.13
2022-10-10T15:42:21.302Z,45.85
2022-10-10T15:44:50.342Z,46.89
2022-10-10T15:47:18.621Z,47.36
2022-10-10T15:49:46.018Z,46.37
2022-10-10T15:52:13.465Z,47.51
2022-10-10T15:54:40.864Z,47.72
2022-10-10T15:57:08.132Z,48.48
2022-10-10T15:59:37.927Z,48.98
2022-10-10T16:02:08.017Z,48.95
2022-10-10T16:04:35.217Z,50.11
2022-10-10T16:09:49.936Z,50.01
2022-10-10T16:12:17.230Z,49.88
2022-10-10T16:14:44.541Z,50.31
2022-10-10T16:17:22.216Z,50.37
2022-10-10T16:19:50.624Z,49.88
2022-10-10T16:22:17.856Z,50.17
2022-10-10T16:24:58.259Z,50.74
2022-10-10T16:27:32.456Z,50.77
2022-10-10T16:29:59.819Z,51.35
2022-10-10T16:32:26.980Z,51.43
2022-10-10T16:34:54.145Z,51.80
2022-10-10T16:37:21.419Z,52.11
2022-10-10T16:39:48.700Z,52.33
2022-10-10T16:42:15.936Z,52.54
2022-10-10T16:44:43.561Z,52.78
2022-10-10T16:47:10.749Z,53.14
2022-10-10T16:49:38.098Z,53.61
2022-10-10T16:52:05.281Z,53.65
2022-10-10T16:54:32.416Z,53.68
2022-10-10T16:56:59.581Z,53.91
2022-10-10T16:59:26.898Z,53.86
2022-10-10T17:01:54.060Z,53.90
2022-10-10T17:04:21.985Z,54.12
2022-10-10T17:06:49.264Z,54.26
2022-10-10T17:09:17.497Z,54.52
2022-10-10T17:11:48.106Z,55.09
2022-10-10T17:14:18.498Z,55.06
2022-10-10T17:17:10.428Z,55.26
2022-10-10T17:19:33.177Z,55.34
2022-10-10T17:22:00.344Z,55.56
2022-10-10T17:24:28.145Z,55.54
2022-10-10T17:26:55.942Z,56.01
2022-10-10T17:29:23.970Z,55.83
2022-10-10T17:31:51.180Z,56.14
2022-10-10T17:34:18.586Z,55.77
2022-10-10T17:36:46.421Z,56.03
2022-10-10T17:39:13.922Z,56.10
2022-10-10T17:41:41.476Z,56.19
2022-10-10T17:44:11.012Z,56.57
2022-10-10T17:46:39.353Z,56.42
2022-10-10T17:49:09.298Z,56.36
2022-10-10T17:51:38.028Z,56.56
2022-10-10T17:54:06.781Z,56.55
2022-10-10T17:56:35.000Z,56.42
2022-10-10T17:59:05.699Z,56.74
2022-10-10T18:01:34.354Z,56.60
2022-10-10T18:04:02.427Z,56.77
2022-10-10T18:06:30.424Z,56.60
2022-10-10T18:08:58.141Z,57.17
2022-10-10T18:11:28.577Z,57.69
2022-10-10T18:14:01.196Z,57.48
2022-10-10T18:16:34.393Z,57.30
2022-10-10T18:19:03.897Z,57.89
2022-10-10T18:21:31.099Z,57.60
2022-10-10T18:23:58.597Z,57.57
2022-10-10T18:26:29.769Z,57.73
2022-10-10T18:28:57.659Z,57.64
2022-10-10T18:31:28.349Z,58.09
2022-10-10T18:33:56.066Z,57.77
2022-10-10T18:36:28.903Z,58.12
2022-10-10T18:38:59.737Z,58.43
2022-10-10T18:41:33.180Z,58.28
2022-10-10T18:44:05.541Z,58.49
2022-10-10T18:46:33.417Z,58.33
2022-10-10T18:49:02.221Z,58.70
2022-10-10T18:51:30.379Z,58.36
2022-10-10T18:54:04.066Z,58.79
2022-10-10T18:56:33.346Z,59.08
2022-10-10T18:59:02.704Z,58.88
2022-10-10T19:01:34.006Z,59.18
2022-10-10T19:04:01.138Z,59.38
2022-10-10T19:06:29.059Z,58.91
2022-10-10T19:08:58.551Z,59.05
2022-10-10T19:11:39.387Z,58.99
2022-10-10T19:14:11.977Z,59.26
2022-10-10T19:16:41.105Z,59.42
2022-10-10T19:19:08.890Z,59.22
2022-10-10T19:21:38.103Z,59.51
2022-10-10T19:24:07.898Z,59.17
2022-10-10T19:26:36.185Z,58.98
2022-10-10T19:29:07.076Z,59.65
2022-10-10T19:31:35.657Z,59.46
2022-10-10T19:34:02.700Z,59.87
2022-10-10T19:36:30.112Z,59.58
2022-10-10T19:38:59.986Z,59.62
2022-10-10T19:41:28.061Z,59.38
2022-10-10T19:43:57.703Z,59.62
2022-10-10T19:46:27.179Z,59.55
2022-10-10T19:48:57.616Z,59.51
2022-10-10T19:51:26.059Z,59.52
2022-10-10T19:53:53.219Z,59.38
2022-10-10T19:56:24.780Z,59.58
2022-10-10T19:58:56.953Z,59.66
2022-10-10T20:01:29.271Z,59.93
2022-10-10T20:03:57.998Z,59.87
2022-10-10T20:06:25.944Z,60.01
2022-10-10T20:08:53.218Z,59.79
2022-10-10T20:11:20.900Z,60.40
2022-10-10T20:13:53.418Z,60.71
2022-10-10T20:16:22.347Z,60.65
2022-10-10T20:18:49.657Z,60.57
2022-10-10T20:21:23.577Z,60.46
2022-10-10T20:23:51.437Z,61.15
2022-10-10T20:26:24.138Z,61.53
2022-10-10T20:28:52.293Z,61.04
2022-10-10T20:31:22.976Z,61.15
2022-10-10T20:33:52.420Z,61.21
2022-10-10T20:36:21.185Z,61.40
2022-10-10T20:39:05.286Z,61.30
2022-10-10T20:41:34.498Z,60.90
2022-10-10T20:44:04.701Z,61.50
2022-10-10T20:46:37.616Z,60.93
2022-10-10T20:49:07.459Z,61.37
2022-10-10T20:51:34.857Z,61.13
2022-10-10T20:54:04.817Z,61.26
2022-10-10T20:56:33.780Z,61.14
2022-10-10T20:59:01.190Z,61.41
2022-10-10T21:01:30.807Z,60.99
2022-10-10T21:03:59.020Z,61.55
2022-10-10T21:06:30.261Z,61.38
2022-10-10T21:09:00.895Z,61.31
2022-10-10T21:11:28.583Z,61.70
2022-10-10T21:13:58.916Z,61.71
2022-10-10T21:16:35.016Z,61.57
2022-10-10T21:19:02.618Z,61.83
2022-10-10T21:21:35.223Z,61.57
2022-10-10T21:24:07.499Z,61.60
2022-10-10T21:26:34.942Z,61.86
2022-10-10T21:29:02.272Z,61.43
2022-10-10T21:31:35.936Z,61.49
2022-10-10T21:34:05.098Z,62.03
2022-10-10T21:36:33.737Z,61.76
2022-10-10T21:39:02.402Z,61.46
2022-10-10T21:41:29.696Z,61.52
2022-10-10T21:43:59.820Z,62.42
2022-10-10T21:46:36.740Z,62.25
2022-10-10T21:49:10.387Z,62.54
2022-10-10T21:51:39.777Z,62.29
2022-10-10T21:54:07.811Z,62.37
2022-10-10T21:56:35.262Z,62.42
2022-10-10T21:59:02.697Z,62.25
2022-10-10T22:01:33.424Z,62.05
2022-10-10T22:04:02.259Z,62.16
2022-10-10T22:06:29.866Z,61.97
2022-10-10T22:08:59.669Z,62.01
2022-10-10T22:11:29.110Z,61.69
2022-10-10T22:13:56.583Z,61.85
2022-10-10T22:16:24.221Z,62.17
2022-10-10T22:18:56.467Z,62.15
2022-10-10T22:21:29.223Z,62.20
2022-10-10T22:23:59.101Z,62.45
2022-10-10T22:26:26.381Z,62.34
2022-10-10T22:28:53.898Z,62.63
2022-10-10T22:31:21.161Z,62.63
2022-10-10T22:33:48.499Z,62.18
2022-10-10T22:36:15.735Z,62.59
2022-10-10T22:38:45.464Z,62.61
2022-10-10T22:41:13.626Z,62.37
2022-10-10T22:43:40.900Z,62.95
2022-10-10T22:46:08.909Z,62.90
2022-10-10T22:48:36.993Z,62.62
2022-10-10T22:51:16.499Z,62.90
2022-10-10T22:53:45.465Z,62.89
2022-10-10T22:56:15.783Z,62.70
2022-10-10T22:58:43.542Z,62.95
2022-10-10T23:01:17.437Z,62.62
2022-10-10T23:03:44.971Z,62.75
2022-10-10T23:06:12.328Z,62.29
2022-10-10T23:08:39.470Z,62.39
2022-10-10T23:11:06.541Z,62.42
2022-10-10T23:13:33.770Z,62.44
2022-10-10T23:16:00.863Z,62.33
2022-10-10T23:18:29.222Z,62.40
2022-10-10T23:20:56.282Z,62.29
2022-10-10T23:23:23.792Z,62.20
2022-10-10T23:25:51.003Z,61.92
2022-10-10T23:28:18.675Z,62.35
2022-10-10T23:30:48.272Z,62.13
2022-10-10T23:33:17.122Z,62.32
2022-10-10T23:35:44.441Z,62.29
2022-10-10T23:38:11.533Z,62.45
2022-10-10T23:40:38.442Z,62.52
2022-10-10T23:43:07.516Z,62.49
2022-10-10T23:45:34.532Z,62.76
2022-10-10T23:48:01.485Z,62.74
2022-10-10T23:50:28.393Z,62.83
2022-10-10T23:52:55.354Z,62.85
2022-10-10T23:55:22.382Z,62.97
2022-10-10T23:57:49.351Z,63.00
